Latest Weather Observations for Minlaton Airport

IDS60801

Issued at 7:31 am CST Friday 23 June 2017 (issued every 30 minutes, with the page automatically refreshed every 10 minutes)

About weather observations | Map of weather stations | Latest weather observations for SA | Other Formats
Station Details ID: 022031 Name: MINLATON AERO Lat: -34.75 Lon: 137.53 Height: 32.0 m
Data from the previous 72 hours. | See also: Recent months at Minlaton Airport
Date/Time
CST
Temp
°C
App
Temp
°C
Dew
Point
°C
Rel
Hum
%
Delta-T
°C
Wind Press
QNH
hPa
Press
MSL
hPa
Rain since
9am
mm
Dir  Spd
km/h
Gust
km/h
Spd
kts
Gust
kts
23/07:30am 7.7 3.6 4.1 78 1.6 NNE 15 17 8 9 1018.2 1018.2 0.0
23/07:00am 9.5 5.2 5.3 75 1.9 NNE 17 17 9 9 1017.9 1017.9 0.0
23/06:30am 8.4 4.0 4.8 78 1.6 NNE 17 20 9 11 1018.2 1018.2 0.0
23/06:00am 9.8 5.2 5.6 75 1.9 NNE 19 20 10 11 1017.8 1017.8 0.0
23/05:30am 9.3 4.6 5.1 75 1.9 NNE 19 20 10 11 1017.6 1017.6 0.0
23/05:00am 9.0 4.2 5.6 79 1.5 N 20 24 11 13 1017.9 1017.9 0.0
23/04:30am 9.0 4.3 6.1 82 1.3 NNE 20 20 11 11 1017.7 1017.7 0.0
23/04:00am 8.2 3.6 5.7 84 1.1 NNE 19 20 10 11 1018.4 1018.4 0.0
23/03:30am 8.4 3.6 5.5 82 1.3 N 20 22 11 12 1018.7 1018.7 0.0
23/03:00am 8.8 4.2 5.7 81 1.4 NNE 19 20 10 11 1018.6 1018.6 0.0
23/02:30am 8.5 3.6 5.3 80 1.4 NNE 20 22 11 12 1018.6 1018.6 0.0
23/02:00am 8.7 4.0 5.1 78 1.6 NNE 19 20 10 11 1018.7 1018.7 0.0
23/01:30am 8.5 3.7 4.9 78 1.6 NNE 19 20 10 11 1018.8 1018.8 0.0
23/01:00am 8.8 4.1 5.0 77 1.7 NNE 19 20 10 11 1019.4 1019.4 0.0
23/12:30am 9.2 4.4 4.4 72 2.1 NNE 19 20 10 11 1019.4 1019.4 0.0
23/12:00am 7.0 2.5 2.1 71 2.0 NNE 15 17 8 9 1019.9 1019.9 0.0
 
Date/Time
CST
Temp
°C
App
Temp
°C
Dew
Point
°C
Rel
Hum
%
Delta-T
°C
Wind Press
QNH
hPa
Press
MSL
hPa
Rain since
9am
mm
Dir  Spd
km/h
Gust
km/h
Spd
kts
Gust
kts
22/11:30pm 6.7 1.7 1.6 70 2.1 NE 17 17 9 9 1020.0 1020.0 0.0
22/11:00pm 6.7 1.7 1.2 68 2.2 NE 17 19 9 10 1020.0 1020.0 0.0
22/10:30pm 6.9 1.9 1.6 69 2.1 NE 17 19 9 10 1020.4 1020.4 0.0
22/10:00pm 6.4 1.4 1.5 71 2.0 ENE 17 19 9 10 1020.9 1020.9 0.0
22/09:30pm 6.4 1.4 1.5 71 2.0 ENE 17 17 9 9 1021.0 1021.0 0.0
22/09:00pm 7.2 2.7 2.1 70 2.1 ENE 15 17 8 9 1021.0 1021.0 0.0
22/08:30pm 6.7 2.2 2.4 74 1.8 ENE 15 15 8 8 1021.1 1021.1 0.0
22/08:00pm 7.3 2.6 3.0 74 1.8 ENE 17 17 9 9 1021.1 1021.1 0.0
22/07:30pm 7.9 3.7 3.6 74 1.8 ENE 15 17 8 9 1020.9 1020.9 0.0
22/07:00pm 8.0 4.7 4.4 78 1.6 ENE 11 13 6 7 1020.8 1020.8 0.0
22/06:30pm 7.8 5.2 4.0 77 1.6 NE 7 9 4 5 1020.6 1020.6 0.0
22/06:00pm 8.8 6.0 5.2 78 1.6 E 9 9 5 5 1020.9 1020.9 0.0
22/05:30pm 10.1 7.4 5.5 73 2.1 NNE 9 9 5 5 1021.0 1021.0 0.0
22/05:00pm 13.2 10.3 6.3 63 3.3 NNW 11 11 6 6 1021.1 1021.1 0.0
22/04:30pm 15.4 12.1 6.4 55 4.4 NNW 13 15 7 8 1021.2 1021.2 0.0
22/04:00pm 16.4 12.8 6.8 53 4.7 NNW 15 19 8 10 1021.4 1021.4 0.0
22/03:30pm 16.7 12.4 5.3 47 5.4 NNW 17 20 9 11 1021.5 1021.5 0.0
22/03:00pm 17.1 12.4 5.1 45 5.7 NW 19 20 10 11 1021.5 1021.5 0.0
22/02:30pm 17.3 12.4 4.3 42 6.1 NNW 19 22 10 12 1021.5 1021.5 0.0
22/02:00pm 17.6 13.0 5.5 45 5.9 NNW 19 24 10 13 1021.8 1021.8 0.0
22/01:30pm 17.6 12.5 5.9 46 5.7 NNW 22 28 12 15 1022.2 1022.2 0.0
22/01:00pm 17.3 11.7 5.3 45 5.8 NNW 24 30 13 16 1022.5 1022.6 0.0
22/12:30pm 17.2 11.5 4.9 44 5.8 N 24 30 13 16 1023.2 1023.3 0.0
22/12:00pm 17.4 12.0 6.3 48 5.4 NNW 24 30 13 16 1023.9 1024.0 0.0
22/11:30am 16.9 10.9 5.5 47 5.5 NNW 26 32 14 17 1024.6 1024.7 0.0
22/11:00am 17.0 10.9 2.6 38 6.5 N 24 30 13 16 1025.0 1025.1 0.0
22/10:30am 16.1 10.5 3.5 43 5.8 N 22 26 12 14 1025.4 1025.5 0.0
22/10:00am 14.9 10.0 4.0 48 5.0 N 19 24 10 13 1025.6 1025.7 0.0
22/09:30am 12.7 8.9 5.6 62 3.3 NNE 15 19 8 10 1025.7 1025.8 0.0
22/09:00am 11.2 6.7 4.2 62 3.1 NE 17 20 9 11 1025.5 1025.6 0.0
22/08:30am 9.3 4.3 3.5 67 2.5 ENE 19 20 10 11 1025.3 1025.4 0.0
22/08:00am 8.4 2.8 3.3 70 2.2 ENE 22 26 12 14 1025.1 1025.2 0.0
22/07:30am 7.5 2.3 3.4 75 1.7 ENE 20 24 11 13 1024.9 1025.0 0.0
22/07:00am 7.6 2.0 3.5 75 1.7 ENE 22 24 12 13 1025.0 1025.1 0.0
22/06:30am 8.0 2.4 3.7 74 1.8 ENE 22 28 12 15 1024.9 1025.0 0.0
22/06:00am 7.7 1.7 3.6 75 1.7 ENE 24 28 13 15 1024.6 1024.7 0.0
22/05:30am 8.2 2.3 3.9 74 1.9 ENE 24 30 13 16 1024.3 1024.4 0.0
22/05:00am 8.3 2.4 4.1 75 1.8 ENE 24 28 13 15 1024.4 1024.5 0.0
22/04:30am 8.4 3.4 4.8 78 1.6 ENE 20 26 11 14 1024.5 1024.6 0.0
22/04:00am 7.8 2.8 4.7 81 1.4 ENE 20 24 11 13 1024.5 1024.6 0.0
22/03:30am 6.8 1.0 4.5 85 1.0 ENE 24 28 13 15 1024.5 1024.6 0.0
22/03:00am 6.3 1.2 4.0 85 1.0 E 20 24 11 13 1025.1 1025.2 0.0
22/02:30am 9.1 3.9 5.3 77 1.7 ENE 22 26 12 14 1024.6 1024.7 0.0
22/02:00am 7.8 3.0 5.6 86 1.0 ENE 20 24 11 13 1024.8 1024.9 0.0
22/01:30am 6.9 2.4 6.3 96 0.3 ENE 19 20 10 11 1025.2 1025.3 0.0
22/01:00am 6.8 2.1 6.2 96 0.3 E 20 22 11 12 1025.2 1025.3 0.0
22/12:30am 7.5 2.6 6.8 95 0.3 E 22 28 12 15 1025.5 1025.6 0.0
22/12:00am 8.5 3.4 7.7 95 0.4 E 24 24 13 13 1025.5 1025.6 0.0
 
Date/Time
CST
Temp
°C
App
Temp
°C
Dew
Point
°C
Rel
Hum
%
Delta-T
°C
Wind Press
QNH
hPa
Press
MSL
hPa
Rain since
9am
mm
Dir  Spd
km/h
Gust
km/h
Spd
kts
Gust
kts
21/11:30pm 8.2 3.1 7.6 96 0.3 E 24 26 13 14 1026.0 1026.1 0.0
21/11:00pm 8.4 3.3 7.8 96 0.3 E 24 24 13 13 1026.1 1026.2 0.0
21/10:30pm 8.6 4.0 8.0 96 0.3 E 22 24 12 13 1026.3 1026.4 0.0
21/10:00pm 8.6 3.5 7.7 94 0.4 E 24 26 13 14 1026.5 1026.6 0.0
21/09:30pm 9.0 3.9 7.6 91 0.7 E 24 26 13 14 1026.6 1026.7 0.0
21/09:00pm 9.1 4.3 7.5 90 0.8 E 22 24 12 13 1026.6 1026.7 0.0
21/08:30pm 8.8 4.3 6.9 88 0.9 E 20 22 11 12 1026.8 1026.9 0.0
21/08:00pm 8.9 4.5 7.2 89 0.8 ESE 20 20 11 11 1026.6 1026.7 0.0
21/07:30pm 8.4 3.9 5.9 84 1.1 ESE 19 20 10 11 1026.5 1026.6 0.0
21/07:00pm 9.7 5.6 6.4 80 1.5 E 17 19 9 10 1026.3 1026.4 0.0
21/06:30pm 9.4 5.7 6.3 81 1.4 ESE 15 17 8 9 1026.4 1026.5 0.0
21/06:00pm 10.6 7.2 7.7 82 1.4 SE 15 17 8 9 1026.2 1026.3 0.0
21/05:30pm 12.1 9.4 9.1 82 1.5 SSE 13 15 7 8 1026.0 1026.1 0.0
21/05:00pm 14.4 12.3 9.6 73 2.5 S 11 13 6 7 1026.1 1026.2 0.0
21/04:30pm 16.3 14.2 9.9 66 3.3 SW 11 13 6 7 1026.2 1026.3 0.0
21/04:00pm 17.2 14.9 10.3 64 3.7 SW 13 17 7 9 1026.1 1026.2 0.0
21/03:30pm 17.9 15.2 9.0 56 4.6 W 13 17 7 9 1026.3 1026.4 0.0
21/03:00pm 18.2 15.1 9.0 55 4.8 W 15 17 8 9 1026.2 1026.3 0.0
21/02:30pm 18.8 15.8 9.3 54 5.0 W 15 19 8 10 1026.0 1026.1 0.0
21/02:00pm 18.5 15.6 9.6 56 4.7 W 15 19 8 10 1026.1 1026.2 0.0
21/01:30pm 18.5 15.9 9.3 55 4.8 W 13 19 7 10 1026.6 1026.7 0.0
21/01:00pm 18.7 16.4 8.9 53 5.1 W 11 19 6 10 1026.9 1027.0 0.0
21/12:30pm 18.2 16.4 9.3 56 4.6 NNW 9 13 5 7 1027.5 1027.6 0.0
21/12:00pm 18.7 17.3 8.9 53 5.1 N 6 11 3 6 1028.1 1028.2 0.0
21/11:30am 17.8 15.8 8.6 55 4.7 NNE 9 17 5 9 1028.4 1028.4 0.0
21/11:00am 17.3 15.5 9.5 60 4.1 NNE 9 13 5 7 1028.9 1028.9 0.0
21/10:30am 16.8 15.1 11.1 69 3.0 NE 11 15 6 8 1029.1 1029.1 0.0
21/10:00am 15.1 14.9 13.0 87 1.2 E 6 7 3 4 1029.0 1029.0 0.0
21/09:30am 12.2 10.6 11.7 97 0.3 E 11 13 6 7 1028.8 1028.8 0.0
21/09:00am 8.6 5.7 8.2 97 0.2 E 13 19 7 10 1028.8 1028.8 0.0
21/08:30am 9.1 6.7 8.6 97 0.2 NNE 11 13 6 7 1028.4 1028.4 0.0
21/08:00am 6.6 2.9 6.2 97 0.2 ENE 15 15 8 8 1028.2 1028.3 0.0
21/07:30am 5.7 2.5 5.3 97 0.2 NE 11 13 6 7 1027.9 1028.0 0.0
21/07:00am 5.4 1.8 4.8 96 0.3 ENE 13 13 7 7 1027.4 1027.5 0.0
21/06:30am 5.3 1.6 4.6 95 0.3 E 13 17 7 9 1027.3 1027.4 0.0
21/06:00am 5.8 2.9 4.9 94 0.4 ENE 9 9 5 5 1027.3 1027.4 0.0
21/05:30am 7.6 5.7 6.9 95 0.3 NE 6 7 3 4 1027.3 1027.4 0.0
21/05:00am 6.1 2.5 5.1 93 0.4 ENE 13 15 7 8 1027.3 1027.4 0.0
21/04:30am 6.4 4.0 5.4 93 0.4 NNE 7 9 4 5 1027.2 1027.3 0.0
21/04:00am 5.7 2.7 4.3 91 0.6 NNE 9 9 5 5 1027.0 1027.1 0.0
21/03:30am 6.0 3.1 4.6 91 0.6 NNE 9 11 5 6 1027.0 1027.1 0.0
21/03:00am 5.3 2.7 4.1 92 0.5 NNE 7 9 4 5 1026.9 1027.0 0.0
21/02:30am 4.7 2.1 3.4 91 0.5 ENE 6 7 3 4 1026.8 1026.9 0.0
21/02:00am 5.3 2.6 3.8 90 0.6 NNE 7 9 4 5 1026.8 1026.9 0.0
21/01:30am 5.4 2.3 3.7 89 0.7 ENE 9 11 5 6 1026.6 1026.7 0.0
21/01:00am 5.9 3.3 4.1 88 0.8 NE 7 9 4 5 1026.5 1026.6 0.0
21/12:30am 5.8 2.7 3.8 87 0.8 ENE 9 13 5 7 1026.7 1026.8 0.0
21/12:00am 5.6 2.5 3.4 86 0.9 ENE 9 11 5 6 1026.7 1026.8 0.0
 
Date/Time
CST
Temp
°C
App
Temp
°C
Dew
Point
°C
Rel
Hum
%
Delta-T
°C
Wind Press
QNH
hPa
Press
MSL
hPa
Rain since
9am
mm
Dir  Spd
km/h
Gust
km/h
Spd
kts
Gust
kts
20/11:30pm 5.8 2.7 3.6 86 0.9 NE 9 9 5 5 1026.9 1027.0 0.0
20/11:00pm 6.7 3.3 4.2 84 1.1 NE 11 11 6 6 1026.8 1026.9 0.0
20/10:30pm 6.9 3.9 4.0 82 1.2 NE 9 11 5 6 1026.8 1026.9 0.0
20/10:00pm 7.0 4.0 4.1 82 1.2 NE 9 9 5 5 1026.7 1026.8 0.0
20/09:30pm 7.0 3.3 4.3 83 1.2 NE 13 13 7 7 1026.8 1026.9 0.0
20/09:00pm 7.1 3.4 4.4 83 1.2 NE 13 13 7 7 1026.8 1026.9 0.0
20/08:30pm 7.4 3.7 4.7 83 1.2 NE 13 15 7 8 1026.8 1026.9 0.0
20/08:00pm 8.4 4.5 5.5 82 1.3 NE 15 15 8 8 1026.8 1026.9 0.0
20/07:30pm 9.0 5.6 5.9 81 1.4 NE 13 15 7 8 1026.8 1026.9 0.0
20/07:00pm 9.3 6.0 6.4 82 1.3 NNE 13 15 7 8 1026.6 1026.7 0.0
20/06:30pm 9.6 6.4 6.7 82 1.3 NNE 13 13 7 7 1026.3 1026.4 0.0
20/06:00pm 10.3 7.5 6.8 79 1.6 N 11 13 6 7 1026.1 1026.2 0.0
20/05:30pm 12.7 10.1 7.8 72 2.4 N 11 13 6 7 1026.0 1026.1 0.0
20/05:00pm 13.0 10.4 7.9 71 2.5 NNW 11 13 6 7 1026.0 1026.1 0.0
20/04:30pm 15.2 12.7 8.2 63 3.5 NNW 11 13 6 7 1026.0 1026.1 0.0
20/04:00pm 16.1 13.4 8.8 62 3.7 NW 13 15 7 8 1026.0 1026.1 0.0
20/03:30pm 15.5 12.1 7.8 60 3.8 NW 15 19 8 10 1026.1 1026.2 0.0
20/03:00pm 16.1 12.1 8.3 60 3.9 NW 19 22 10 12 1026.1 1026.2 0.0
20/02:30pm 16.4 12.2 8.4 59 4.1 NW 20 26 11 14 1026.0 1026.1 0.0
20/02:00pm 16.7 12.4 7.9 56 4.4 NW 20 24 11 13 1026.1 1026.2 0.0
20/01:30pm 16.6 12.6 10.5 67 3.2 NW 22 28 12 15 1026.3 1026.4 0.0
20/01:00pm 16.5 12.4 10.1 66 3.4 NW 22 30 12 16 1026.6 1026.7 0.0
20/12:30pm 17.1 13.5 10.7 66 3.4 NNW 20 32 11 17 1026.6 1026.7 0.0
20/12:00pm 16.8 13.3 10.9 68 3.1 NW 20 26 11 14 1026.9 1027.0 0.0
20/11:30am 16.2 12.4 9.8 66 3.3 NNW 20 24 11 13 1027.3 1027.4 0.0
20/11:00am 15.7 12.1 10.5 71 2.8 NNW 20 26 11 14 1027.5 1027.6 0.0
20/10:30am 15.1 11.9 11.1 77 2.1 NNW 19 24 10 13 1027.4 1027.5 0.0
20/10:00am 14.1 11.3 11.3 83 1.5 N 17 20 9 11 1027.3 1027.4 0.0
20/09:30am 13.0 9.8 11.1 88 1.0 N 19 22 10 12 1027.2 1027.3 0.0
20/09:00am 11.9 8.8 10.3 90 0.8 N 17 20 9 11 1026.9 1027.0 0.2
20/08:30am 9.7 5.7 8.3 91 0.7 NNE 19 20 10 11 1026.8 1026.9 0.2
20/08:00am 8.4 4.0 6.7 89 0.8 NNE 19 20 10 11 1026.9 1027.0 0.2

Other Formats:

Comma delimited format used in spreadsheet applications
http://www.bom.gov.au/fwo/IDS60801/IDS60801.95659.axf

JavaScript Object Notation format (JSON) in row-major order
http://www.bom.gov.au/fwo/IDS60801/IDS60801.95659.json